Time;durP1;ratioP1;P1;durP2;ratioP2;P2;SDS_P1;SDS_P2;PMS_P1;PMS_P2;Temp;Humidity;BMP_temperature;BMP_pressure;BME280_temperature;BME280_humidity;BME280_pressure;Samples;Min_cycle;Max_cycle;Signal;HPM_P1;HPM_P2
2022/07/10 00:01:21;;;;;;;;;;;;;;;-147.11;100.00;61570.13;5030932;28;19916;-61
2022/07/10 00:03:49;;;;;;;;;;;;;;;-147.11;100.00;61570.13;5027136;28;20548;-57
2022/07/10 00:06:15;;;;;;;;;;;;;;;-147.11;100.00;61570.13;5019073;28;20011;-59
2022/07/10 00:08:40;;;;;;;;;;;;;;;-147.11;100.00;61570.13;5021577;28;20011;-59
2022/07/10 00:11:06;;;;;;;;;;;;;;;-147.11;100.00;61570.13;5029416;28;19917;-58
2022/07/10 00:13:31;;;;;;;;;;;;;;;-147.11;100.00;61570.13;5025021;28;19993;-59
2022/07/10 00:15:56;;;;;;;;;;;;;;;-147.11;100.00;61570.13;5031292;28;19925;-62
2022/07/10 00:18:21;;;;;;;;;;;;;;;-147.11;100.00;61570.13;5027225;28;20366;-61
2022/07/10 00:20:47;;;;;;;;;;;;;;;-147.11;100.00;61570.13;5032097;28;19917;-57
2022/07/10 00:23:12;;;;;;;;;;;;;;;-147.11;100.00;61570.13;5025039;28;19917;-59
2022/07/10 00:25:37;;;;;;;;;;;;;;;-147.11;100.00;61570.13;5026232;28;20406;-60
2022/07/10 00:28:04;;;;;;;;;;;;;;;-147.11;100.00;61570.13;5023711;28;20386;-60
2022/07/10 00:30:29;;;;;;;;;;;;;;;-147.11;100.00;61570.13;5026918;28;19925;-59
2022/07/10 00:32:55;;;;;;;;;;;;;;;-147.11;100.00;61570.13;5032063;28;19917;-58
2022/07/10 00:35:20;;;;;;;;;;;;;;;-147.11;100.00;61570.13;5027356;28;20004;-58
2022/07/10 00:37:45;;;;;;;;;;;;;;;-147.11;100.00;61570.13;5027634;28;19917;-58
2022/07/10 00:40:12;;;;;;;;;;;;;;;-147.11;100.00;61570.13;5028208;28;19921;-61
2022/07/10 00:42:37;;;;;;;;;;;;;;;-147.11;100.00;61570.13;5022963;28;19920;-59
2022/07/10 00:45:03;;;;;;;;;;;;;;;-147.11;100.00;61570.13;5024293;28;19924;-61
2022/07/10 00:47:28;;;;;;;;;;;;;;;-147.11;100.00;61570.13;5010769;28;19963;-58
2022/07/10 00:49:53;;;;;;;;;;;;;;;-147.11;100.00;61570.13;5022414;28;19917;-59
2022/07/10 00:52:19;;;;;;;;;;;;;;;-147.11;100.00;61570.13;5024267;28;19912;-58
2022/07/10 00:54:45;;;;;;;;;;;;;;;-147.11;100.00;61570.13;5018116;28;20008;-60
2022/07/10 00:57:11;;;;;;;;;;;;;;;-147.11;100.00;61570.13;5025542;28;19917;-59
2022/07/10 00:59:37;;;;;;;;;;;;;;;-147.11;100.00;61570.13;5021639;28;20399;-58
2022/07/10 01:02:03;;;;;;;;;;;;;;;-147.11;100.00;61570.13;5024566;28;19931;-61
2022/07/10 01:04:29;;;;;;;;;;;;;;;-147.11;100.00;61570.13;5019676;28;19985;-58
2022/07/10 01:06:55;;;;;;;;;;;;;;;-147.11;100.00;61570.13;5028591;28;20016;-58
2022/07/10 01:09:20;;;;;;;;;;;;;;;-147.11;100.00;61570.13;5024061;28;20019;-61
2022/07/10 01:11:46;;;;;;;;;;;;;;;-147.11;100.00;61570.13;5028208;28;19924;-58
2022/07/10 01:14:12;;;;;;;;;;;;;;;-147.11;100.00;61570.13;5026573;28;19921;-58
2022/07/10 01:16:37;;;;;;;;;;;;;;;-147.11;100.00;61570.13;5026313;28;19939;-58
2022/07/10 01:19:02;;;;;;;;;;;;;;;-147.11;100.00;61570.13;5025447;28;25174;-59
2022/07/10 01:21:28;;;;;;;;;;;;;;;-147.11;100.00;61570.13;5022740;28;19916;-57
2022/07/10 01:23:53;;;;;;;;;;;;;;;-147.11;100.00;61570.13;5025973;28;19932;-57
2022/07/10 01:26:20;;;;;;;;;;;;;;;-147.11;100.00;61570.13;5014167;28;19928;-57
2022/07/10 01:28:47;;;;;;;;;;;;;;;-147.11;100.00;61570.13;5026739;28;19928;-57
2022/07/10 01:31:12;;;;;;;;;;;;;;;-147.11;100.00;61570.13;5020985;28;19944;-57
2022/07/10 01:33:37;;;;;;;;;;;;;;;-147.11;100.00;61570.13;5028866;28;19928;-61
2022/07/10 01:36:03;;;;;;;;;;;;;;;-147.11;100.00;61570.13;5018642;28;19916;-61
2022/07/10 01:38:28;;;;;;;;;;;;;;;-147.11;100.00;61570.13;5019205;28;19921;-60
2022/07/10 01:40:55;;;;;;;;;;;;;;;-147.11;100.00;61570.13;5018570;28;20066;-57
2022/07/10 01:43:20;;;;;;;;;;;;;;;-147.11;100.00;61570.13;5020722;28;20011;-57
2022/07/10 01:45:45;;;;;;;;;;;;;;;-147.11;100.00;61570.13;5017642;28;20300;-58
2022/07/10 01:48:11;;;;;;;;;;;;;;;-147.11;100.00;61570.13;5035286;28;20291;-57
2022/07/10 01:50:36;;;;;;;;;;;;;;;-147.11;100.00;61570.13;5023662;28;20102;-58
2022/07/10 01:53:04;;;;;;;;;;;;;;;-147.11;100.00;61570.13;5029206;28;19924;-58
2022/07/10 01:55:29;;;;;;;;;;;;;;;-147.11;100.00;61570.13;5026064;28;19921;-57
2022/07/10 01:57:55;;;;;;;;;;;;;;;-147.11;100.00;61570.13;5025360;28;20015;-56
2022/07/10 02:00:20;;;;;;;;;;;;;;;-147.11;100.00;61570.13;5027236;28;19925;-57
2022/07/10 02:04:40;;;;;;;;;;;;;;;-147.11;100.00;61570.13;5027994;28;19935;-58
2022/07/10 02:05:31;;;;;;;;;;;;;;;-147.11;100.00;61570.13;5021582;28;19983;-57
2022/07/10 02:07:56;;;;;;;;;;;;;;;-147.11;100.00;61570.13;5016581;28;19929;-58
2022/07/10 02:10:22;;;;;;;;;;;;;;;-147.11;100.00;61570.13;5017600;28;19923;-60
2022/07/10 02:12:47;;;;;;;;;;;;;;;-147.11;100.00;61570.13;5022224;28;19973;-61
2022/07/10 02:15:12;;;;;;;;;;;;;;;-147.11;100.00;61570.13;5017672;28;19925;-61
2022/07/10 02:17:37;;;;;;;;;;;;;;;-147.11;100.00;61570.13;5022064;28;20388;-58
2022/07/10 02:20:04;;;;;;;;;;;;;;;-147.11;100.00;61570.13;5022639;28;19925;-59
2022/07/10 02:22:29;;;;;;;;;;;;;;;-147.11;100.00;61570.13;5019481;28;19917;-61
2022/07/10 02:24:54;;;;;;;;;;;;;;;-147.11;100.00;61570.13;5021400;28;20327;-58
2022/07/10 02:27:20;;;;;;;;;;;;;;;-147.11;100.00;61570.13;5022418;28;19952;-56
2022/07/10 02:29:45;;;;;;;;;;;;;;;-147.11;100.00;61570.13;5022486;28;19925;-58
2022/07/10 02:32:10;;;;;;;;;;;;;;;-147.11;100.00;61570.13;5025908;28;20356;-61
2022/07/10 02:34:35;;;;;;;;;;;;;;;-147.11;100.00;61570.13;5020867;28;20007;-60
2022/07/10 02:37:01;;;;;;;;;;;;;;;-147.11;100.00;61570.13;5020554;28;19924;-59
2022/07/10 02:39:26;;;;;;;;;;;;;;;-147.11;100.00;61570.13;5025913;28;19917;-57
2022/07/10 02:41:51;;;;;;;;;;;;;;;-147.11;100.00;61570.13;5024241;28;19924;-58
2022/07/10 02:44:17;;;;;;;;;;;;;;;-147.11;100.00;61570.13;5024319;28;19985;-58
2022/07/10 02:46:42;;;;;;;;;;;;;;;-147.11;100.00;61570.13;5025737;28;19928;-58
2022/07/10 02:49:07;;;;;;;;;;;;;;;-147.11;100.00;61570.13;5028372;28;20897;-56
2022/07/10 02:51:33;;;;;;;;;;;;;;;-147.11;100.00;61570.13;5010372;28;19921;-59
2022/07/10 02:53:58;;;;;;;;;;;;;;;-147.11;100.00;61570.13;5018501;28;19921;-56
2022/07/10 02:56:24;;;;;;;;;;;;;;;-147.11;100.00;61570.13;5025440;28;19917;-58
2022/07/10 02:58:49;;;;;;;;;;;;;;;-147.11;100.00;61570.13;5030374;28;20411;-59
2022/07/10 03:01:14;;;;;;;;;;;;;;;-147.11;100.00;61570.13;5032056;28;19939;-60
2022/07/10 03:03:40;;;;;;;;;;;;;;;-147.11;100.00;61570.13;5029398;28;19923;-58
2022/07/10 03:06:06;;;;;;;;;;;;;;;-147.11;100.00;61570.13;5036289;22;20012;-53
2022/07/10 03:08:31;;;;;;;;;;;;;;;-147.11;100.00;61570.13;4998021;28;19921;-55
2022/07/10 03:10:56;;;;;;;;;;;;;;;-147.11;100.00;61570.13;4996829;28;20276;-56
2022/07/10 03:13:22;;;;;;;;;;;;;;;-147.11;100.00;61570.13;4999051;28;19931;-53
2022/07/10 03:15:47;;;;;;;;;;;;;;;-147.11;100.00;61570.13;5001510;28;19918;-55
2022/07/10 03:18:12;;;;;;;;;;;;;;;-147.11;100.00;61570.13;4995874;28;19928;-56
2022/07/10 03:20:38;;;;;;;;;;;;;;;-147.11;100.00;61570.13;5006076;28;19917;-54
2022/07/10 03:23:03;;;;;;;;;;;;;;;-147.11;100.00;61570.13;4997812;28;19933;-55
2022/07/10 03:25:29;;;;;;;;;;;;;;;-147.11;100.00;61570.13;5002443;28;19968;-55
2022/07/10 03:27:54;;;;;;;;;;;;;;;-147.11;100.00;61570.13;5004649;28;19917;-55
2022/07/10 03:30:19;;;;;;;;;;;;;;;-147.11;100.00;61570.13;5004157;28;19918;-56
2022/07/10 03:32:45;;;;;;;;;;;;;;;-147.11;100.00;61570.13;5004669;28;19922;-53
2022/07/10 03:35:10;;;;;;;;;;;;;;;-147.11;100.00;61570.13;4995165;28;20395;-54
2022/07/10 03:37:35;;;;;;;;;;;;;;;-147.11;100.00;61570.13;4988611;28;19921;-55
2022/07/10 03:40:01;;;;;;;;;;;;;;;-147.11;100.00;61570.13;4984737;28;20008;-54
2022/07/10 03:42:26;;;;;;;;;;;;;;;-147.11;100.00;61570.13;4997129;28;20495;-53
2022/07/10 03:44:51;;;;;;;;;;;;;;;-147.11;100.00;61570.13;5004067;28;19917;-54
2022/07/10 03:47:17;;;;;;;;;;;;;;;-147.11;100.00;61570.13;5004205;28;19926;-54
2022/07/10 03:49:42;;;;;;;;;;;;;;;-147.11;100.00;61570.13;5003282;28;20296;-52
2022/07/10 03:52:07;;;;;;;;;;;;;;;-147.11;100.00;61570.13;5003759;28;19922;-54
2022/07/10 03:54:33;;;;;;;;;;;;;;;-147.11;100.00;61570.13;5002150;28;19921;-53
2022/07/10 03:59:42;;;;;;;;;;;;;;;-147.11;100.00;61570.13;5000148;28;19933;-54
2022/07/10 04:02:07;;;;;;;;;;;;;;;-147.11;100.00;61570.13;4999302;28;19917;-56
2022/07/10 04:04:33;;;;;;;;;;;;;;;-147.11;100.00;61570.13;4999654;28;19917;-56
2022/07/10 04:06:58;;;;;;;;;;;;;;;-147.11;100.00;61570.13;5005513;28;19925;-54
2022/07/10 04:09:23;;;;;;;;;;;;;;;-147.11;100.00;61570.13;5002281;28;19920;-55
2022/07/10 04:11:49;;;;;;;;;;;;;;;-147.11;100.00;61570.13;5001516;28;19917;-53
2022/07/10 04:14:15;;;;;;;;;;;;;;;-147.11;100.00;61570.13;4999638;28;19932;-58
2022/07/10 04:16:40;;;;;;;;;;;;;;;-147.11;100.00;61570.13;5000959;28;19913;-53
2022/07/10 04:19:05;;;;;;;;;;;;;;;-147.11;100.00;61570.13;4999191;28;19917;-55
2022/07/10 04:21:31;;;;;;;;;;;;;;;-147.11;100.00;61570.13;5001230;28;19926;-55
2022/07/10 04:23:56;;;;;;;;;;;;;;;-147.11;100.00;61570.13;4999722;28;20403;-55
2022/07/10 04:26:21;;;;;;;;;;;;;;;-147.11;100.00;61570.13;4998708;28;19917;-54
2022/07/10 04:28:46;;;;;;;;;;;;;;;-147.11;100.00;61570.13;4997750;28;19921;-57
2022/07/10 04:31:12;;;;;;;;;;;;;;;-147.11;100.00;61570.13;4997816;28;19972;-55
2022/07/10 04:33:37;;;;;;;;;;;;;;;-147.11;100.00;61570.13;5000948;28;19928;-55
2022/07/10 04:36:02;;;;;;;;;;;;;;;-147.11;100.00;61570.13;4999600;28;20350;-53
2022/07/10 04:38:28;;;;;;;;;;;;;;;-147.11;100.00;61570.13;4999502;28;20032;-54
2022/07/10 04:40:53;;;;;;;;;;;;;;;-147.11;100.00;61570.13;5000745;28;20323;-56
2022/07/10 04:43:19;;;;;;;;;;;;;;;-147.11;100.00;61570.13;4998909;28;19921;-55
2022/07/10 04:45:45;;;;;;;;;;;;;;;-147.11;100.00;61570.13;4998039;28;19922;-54
2022/07/10 04:48:10;;;;;;;;;;;;;;;-147.11;100.00;61570.13;4999741;28;19971;-54
2022/07/10 04:50:35;;;;;;;;;;;;;;;-147.11;100.00;61570.13;5003195;28;20395;-55
2022/07/10 04:53:01;;;;;;;;;;;;;;;-147.11;100.00;61570.13;5004837;28;20296;-54
2022/07/10 04:55:27;;;;;;;;;;;;;;;-147.11;100.00;61570.13;5007719;28;20012;-55
2022/07/10 04:57:52;;;;;;;;;;;;;;;-147.11;100.00;61570.13;5007871;28;20391;-53
2022/07/10 05:00:17;;;;;;;;;;;;;;;-147.11;100.00;61570.13;4999652;28;20281;-55
2022/07/10 05:02:42;;;;;;;;;;;;;;;-147.11;100.00;61570.13;5001216;28;19925;-55
2022/07/10 05:05:08;;;;;;;;;;;;;;;-147.11;100.00;61570.13;5004375;28;20007;-54
2022/07/10 05:07:33;;;;;;;;;;;;;;;-147.11;100.00;61570.13;4999155;28;19917;-58
2022/07/10 05:09:58;;;;;;;;;;;;;;;-147.11;100.00;61570.13;5003548;28;21746;-55
2022/07/10 05:12:24;;;;;;;;;;;;;;;-147.11;100.00;61570.13;5002909;28;19948;-55
2022/07/10 05:14:49;;;;;;;;;;;;;;;-147.11;100.00;61570.13;4987446;28;19925;-54
2022/07/10 05:17:14;;;;;;;;;;;;;;;-147.11;100.00;61570.13;4994759;28;19957;-53
2022/07/10 05:19:40;;;;;;;;;;;;;;;-147.11;100.00;61570.13;5004551;28;19921;-56
2022/07/10 05:22:05;;;;;;;;;;;;;;;-147.11;100.00;61570.13;5004374;28;19914;-54
2022/07/10 05:24:30;;;;;;;;;;;;;;;-147.11;100.00;61570.13;5004570;28;19925;-54
2022/07/10 05:26:56;;;;;;;;;;;;;;;-147.11;100.00;61570.13;5001947;28;19917;-52
2022/07/10 05:29:21;;;;;;;;;;;;;;;-147.11;100.00;61570.13;5000181;28;19913;-55
2022/07/10 05:31:46;;;;;;;;;;;;;;;-147.11;100.00;61570.13;4982245;28;19926;-51
2022/07/10 05:34:12;;;;;;;;;;;;;;;-147.11;100.00;61570.13;4990833;28;20281;-53
2022/07/10 05:36:37;;;;;;;;;;;;;;;-147.11;100.00;61570.13;5011570;28;19923;-51
2022/07/10 05:39:02;;;;;;;;;;;;;;;-147.11;100.00;61570.13;5002159;28;20596;-51
2022/07/10 05:41:28;;;;;;;;;;;;;;;-147.11;100.00;61570.13;5001581;28;19960;-51
2022/07/10 05:43:53;;;;;;;;;;;;;;;-147.11;100.00;61570.13;4997170;28;19925;-52
2022/07/10 05:46:18;;;;;;;;;;;;;;;-147.11;100.00;61570.13;5001403;28;19925;-55
2022/07/10 05:48:43;;;;;;;;;;;;;;;-147.11;100.00;61570.13;5002514;28;19917;-53
2022/07/10 05:51:09;;;;;;;;;;;;;;;-147.11;100.00;61570.13;5008677;28;19921;-55
2022/07/10 05:53:34;;;;;;;;;;;;;;;-147.11;100.00;61570.13;5006355;28;19924;-54
2022/07/10 05:56:01;;;;;;;;;;;;;;;-147.11;100.00;61570.13;5001319;28;20564;-52
2022/07/10 05:58:26;;;;;;;;;;;;;;;-147.11;100.00;61570.13;5002321;28;24862;-53
2022/07/10 06:00:51;;;;;;;;;;;;;;;-147.11;100.00;61570.13;4985662;28;20384;-52
2022/07/10 06:03:17;;;;;;;;;;;;;;;-147.11;100.00;61570.13;5001217;28;19925;-52
2022/07/10 06:05:42;;;;;;;;;;;;;;;-147.11;100.00;61570.13;5001416;28;19943;-53
2022/07/10 06:08:07;;;;;;;;;;;;;;;-147.11;100.00;61570.13;5000003;28;19960;-52
2022/07/10 06:10:33;;;;;;;;;;;;;;;-147.11;100.00;61570.13;5003323;28;19918;-52
2022/07/10 06:12:58;;;;;;;;;;;;;;;-147.11;100.00;61570.13;5001538;28;19917;-51
2022/07/10 06:15:23;;;;;;;;;;;;;;;-147.11;100.00;61570.13;5003643;28;19936;-51
2022/07/10 06:17:48;;;;;;;;;;;;;;;-147.11;100.00;61570.13;4995516;28;20304;-52
2022/07/10 06:20:14;;;;;;;;;;;;;;;-147.11;100.00;61570.13;5003843;28;19918;-53
2022/07/10 06:22:40;;;;;;;;;;;;;;;-147.11;100.00;61570.13;4999412;28;19999;-54
2022/07/10 06:25:06;;;;;;;;;;;;;;;-147.11;100.00;61570.13;4997864;28;20356;-55
2022/07/10 06:27:32;;;;;;;;;;;;;;;-147.11;100.00;61570.13;5006391;28;19924;-52
2022/07/10 06:29:57;;;;;;;;;;;;;;;-147.11;100.00;61570.13;4999133;28;19922;-52
2022/07/10 06:32:24;;;;;;;;;;;;;;;-147.11;100.00;61570.13;5002885;28;20700;-53
2022/07/10 06:34:49;;;;;;;;;;;;;;;-147.11;100.00;61570.13;4997007;28;20024;-52
2022/07/10 06:37:15;;;;;;;;;;;;;;;-147.11;100.00;61570.13;5008282;28;19925;-52
2022/07/10 06:39:40;;;;;;;;;;;;;;;-147.11;100.00;61570.13;5003960;28;19917;-52
2022/07/10 06:42:06;;;;;;;;;;;;;;;-147.11;100.00;61570.13;5009616;28;19918;-52
2022/07/10 06:44:31;;;;;;;;;;;;;;;-147.11;100.00;61570.13;4998469;28;19917;-53
2022/07/10 06:49:41;;;;;;;;;;;;;;;-147.11;100.00;61570.13;4998941;28;20056;-54
2022/07/10 06:52:06;;;;;;;;;;;;;;;-147.11;100.00;61570.13;4997742;28;20008;-55
2022/07/10 06:54:32;;;;;;;;;;;;;;;-147.11;100.00;61570.13;5006394;28;19913;-59
2022/07/10 06:56:58;;;;;;;;;;;;;;;-147.11;100.00;61570.13;5007002;28;19917;-57
2022/07/10 06:59:23;;;;;;;;;;;;;;;-147.11;100.00;61570.13;5001133;28;19926;-57
2022/07/10 07:01:48;;;;;;;;;;;;;;;-147.11;100.00;61570.13;4998070;28;19925;-55
2022/07/10 07:04:14;;;;;;;;;;;;;;;-147.11;100.00;61570.13;5003745;28;19928;-59
2022/07/10 07:06:39;;;;;;;;;;;;;;;-147.11;100.00;61570.13;5001686;28;19921;-56
2022/07/10 07:09:07;;;;;;;;;;;;;;;-147.11;100.00;61570.13;5005977;28;19913;-55
2022/07/10 07:11:33;;;;;;;;;;;;;;;-147.11;100.00;61570.13;4997925;28;19956;-55
2022/07/10 07:13:58;;;;;;;;;;;;;;;-147.11;100.00;61570.13;4993883;28;20056;-52
2022/07/10 07:16:37;;;;;;;;;;;;;;;-147.11;100.00;61570.13;4993577;28;19925;-52
2022/07/10 07:19:04;;;;;;;;;;;;;;;-147.11;100.00;61570.13;4999082;28;20059;-53
2022/07/10 07:24:13;;;;;;;;;;;;;;;-147.11;100.00;61570.13;4997952;28;19925;-53
2022/07/10 07:26:38;;;;;;;;;;;;;;;-147.11;100.00;61570.13;5004895;28;19921;-59
2022/07/10 07:29:03;;;;;;;;;;;;;;;-147.11;100.00;61570.13;4994583;28;19933;-53
2022/07/10 07:31:29;;;;;;;;;;;;;;;-147.11;100.00;61570.13;5004282;28;20296;-52
2022/07/10 07:33:54;;;;;;;;;;;;;;;-147.11;100.00;61570.13;4989328;28;19925;-55
2022/07/10 07:36:19;;;;;;;;;;;;;;;-147.11;100.00;61570.13;4993835;28;19980;-54
2022/07/10 07:38:45;;;;;;;;;;;;;;;-147.11;100.00;61570.13;4994294;28;20510;-58
2022/07/10 07:41:15;;;;;;;;;;;;;;;-147.11;100.00;61570.13;4994826;28;20920;-53
2022/07/10 07:43:40;;;;;;;;;;;;;;;-147.11;100.00;61570.13;5002993;28;19980;-59
2022/07/10 07:46:06;;;;;;;;;;;;;;;-147.11;100.00;61570.13;5005020;28;20377;-56
2022/07/10 07:48:31;;;;;;;;;;;;;;;-147.11;100.00;61570.13;5004859;28;19918;-58
2022/07/10 07:50:56;;;;;;;;;;;;;;;-147.11;100.00;61570.13;5007583;28;20292;-56
2022/07/10 07:53:22;;;;;;;;;;;;;;;-147.11;100.00;61570.13;5000416;28;19918;-58
2022/07/10 07:55:47;;;;;;;;;;;;;;;-147.11;100.00;61570.13;4990467;28;19921;-54
2022/07/10 07:58:13;;;;;;;;;;;;;;;-147.11;100.00;61570.13;5005576;28;19921;-53
2022/07/10 08:00:38;;;;;;;;;;;;;;;-147.11;100.00;61570.13;5005198;28;19959;-51
2022/07/10 08:03:03;;;;;;;;;;;;;;;-147.11;100.00;61570.13;5000382;28;19931;-53
2022/07/10 08:05:29;;;;;;;;;;;;;;;-147.11;100.00;61570.13;5000620;28;19995;-57
2022/07/10 08:07:56;;;;;;;;;;;;;;;-147.11;100.00;61570.13;5002874;28;19914;-55
2022/07/10 08:10:24;;;;;;;;;;;;;;;-147.11;100.00;61570.13;5005378;28;21167;-55
2022/07/10 08:12:50;;;;;;;;;;;;;;;-147.11;100.00;61570.13;4992578;28;19919;-55
2022/07/10 08:15:16;;;;;;;;;;;;;;;-147.11;100.00;61570.13;4999103;28;19921;-56
2022/07/10 08:17:41;;;;;;;;;;;;;;;-147.11;100.00;61570.13;5002978;28;20415;-57
2022/07/10 08:20:08;;;;;;;;;;;;;;;-147.11;100.00;61570.13;5005167;28;19917;-56
2022/07/10 08:22:34;;;;;;;;;;;;;;;-147.11;100.00;61570.13;5002077;28;19948;-56
2022/07/10 08:24:59;;;;;;;;;;;;;;;-147.11;100.00;61570.13;4997648;28;19921;-55
2022/07/10 08:27:25;;;;;;;;;;;;;;;-147.11;100.00;61570.13;4993778;28;20357;-56
2022/07/10 08:29:50;;;;;;;;;;;;;;;-147.11;100.00;61570.13;4997450;28;19913;-57
2022/07/10 08:32:15;;;;;;;;;;;;;;;-147.11;100.00;61570.13;5001954;28;19914;-55
2022/07/10 08:34:41;;;;;;;;;;;;;;;-147.11;100.00;61570.13;5001149;28;19913;-57
2022/07/10 08:37:06;;;;;;;;;;;;;;;-147.11;100.00;61570.13;5003560;28;20361;-58
2022/07/10 08:39:31;;;;;;;;;;;;;;;-147.11;100.00;61570.13;4995179;28;19917;-57
2022/07/10 08:41:57;;;;;;;;;;;;;;;-147.11;100.00;61570.13;5002868;28;19989;-56
2022/07/10 08:44:23;;;;;;;;;;;;;;;-147.11;100.00;61570.13;4998143;28;19917;-55
2022/07/10 08:46:48;;;;;;;;;;;;;;;-147.11;100.00;61570.13;5006392;28;19927;-54
2022/07/10 08:49:16;;;;;;;;;;;;;;;-147.11;100.00;61570.13;5003262;28;20331;-57
2022/07/10 08:51:57;;;;;;;;;;;;;;;-147.11;100.00;61570.13;4998995;28;20291;-56
2022/07/10 08:54:23;;;;;;;;;;;;;;;-147.11;100.00;61570.13;4997566;28;20095;-54
2022/07/10 08:56:49;;;;;;;;;;;;;;;-147.11;100.00;61570.13;4998209;28;19940;-56
2022/07/10 08:59:15;;;;;;;;;;;;;;;-147.11;100.00;61570.13;4998228;28;20361;-56
2022/07/10 09:01:40;;;;;;;;;;;;;;;-147.11;100.00;61570.13;4998906;28;19928;-57
2022/07/10 09:04:06;;;;;;;;;;;;;;;-147.11;100.00;61570.13;4996941;28;20049;-55
2022/07/10 09:06:31;;;;;;;;;;;;;;;-147.11;100.00;61570.13;5033708;22;19985;-58
2022/07/10 09:09:02;;;;;;;;;;;;;;;-147.11;100.00;61570.13;5021483;28;19926;-58
2022/07/10 09:11:29;;;;;;;;;;;;;;;-147.11;100.00;61570.13;5021794;28;20300;-56
2022/07/10 09:13:56;;;;;;;;;;;;;;;-147.11;100.00;61570.13;5022913;28;19913;-61
2022/07/10 09:16:25;;;;;;;;;;;;;;;-147.11;100.00;61570.13;5018533;28;19917;-56
2022/07/10 09:18:51;;;;;;;;;;;;;;;-147.11;100.00;61570.13;5028081;28;19917;-61
2022/07/10 09:21:16;;;;;;;;;;;;;;;-147.11;100.00;61570.13;5024747;28;19912;-59
2022/07/10 09:23:42;;;;;;;;;;;;;;;-147.11;100.00;61570.13;5019552;28;19916;-63
2022/07/10 09:26:07;;;;;;;;;;;;;;;-147.11;100.00;61570.13;5020704;28;19928;-63
2022/07/10 09:28:32;;;;;;;;;;;;;;;-147.11;100.00;61570.13;5011563;28;19975;-60
2022/07/10 09:30:58;;;;;;;;;;;;;;;-147.11;100.00;61570.13;5015174;28;19955;-60
2022/07/10 09:33:29;;;;;;;;;;;;;;;-147.11;100.00;61570.13;5018505;28;19921;-62
2022/07/10 09:36:07;;;;;;;;;;;;;;;-147.11;100.00;61570.13;5021085;28;19923;-56
2022/07/10 09:38:48;;;;;;;;;;;;;;;-147.11;100.00;61570.13;5020602;28;23283;-59
2022/07/10 09:41:21;;;;;;;;;;;;;;;-147.11;100.00;61570.13;5015893;28;19913;-59
2022/07/10 09:43:51;;;;;;;;;;;;;;;-147.11;100.00;61570.13;5018375;28;19920;-56
2022/07/10 09:46:17;;;;;;;;;;;;;;;-147.11;100.00;61570.13;5017048;28;20007;-60
2022/07/10 09:48:42;;;;;;;;;;;;;;;-147.11;100.00;61570.13;5009597;28;20011;-58
2022/07/10 09:51:09;;;;;;;;;;;;;;;-147.11;100.00;61570.13;5016019;28;19970;-59
2022/07/10 09:53:40;;;;;;;;;;;;;;;-147.11;100.00;61570.13;5017299;28;19970;-62
2022/07/10 09:56:06;;;;;;;;;;;;;;;-147.11;100.00;61570.13;5015300;28;19921;-57
2022/07/10 09:58:35;;;;;;;;;;;;;;;-147.11;100.00;61570.13;5018910;28;20380;-60
2022/07/10 10:01:01;;;;;;;;;;;;;;;-147.11;100.00;61570.13;5014992;28;19958;-58
2022/07/10 10:03:27;;;;;;;;;;;;;;;-147.11;100.00;61570.13;5007376;28;20357;-56
2022/07/10 10:05:53;;;;;;;;;;;;;;;-147.11;100.00;61570.13;5006542;28;19956;-60
2022/07/10 10:08:19;;;;;;;;;;;;;;;-147.11;100.00;61570.13;5009473;28;19921;-60
2022/07/10 10:10:47;;;;;;;;;;;;;;;-147.11;100.00;61570.13;5012381;28;20398;-60
2022/07/10 10:13:15;;;;;;;;;;;;;;;-147.11;100.00;61570.13;5012167;28;20338;-60
2022/07/10 10:15:42;;;;;;;;;;;;;;;-147.11;100.00;61570.13;5010988;28;20319;-59
2022/07/10 10:18:08;;;;;;;;;;;;;;;-147.11;100.00;61570.13;5010861;28;19917;-59
2022/07/10 10:20:37;;;;;;;;;;;;;;;-147.11;100.00;61570.13;5011363;28;19979;-60
2022/07/10 10:23:03;;;;;;;;;;;;;;;-147.11;100.00;61570.13;5013717;28;20445;-58
2022/07/10 10:25:31;;;;;;;;;;;;;;;-147.11;100.00;61570.13;5016476;28;19925;-58
2022/07/10 10:27:57;;;;;;;;;;;;;;;-147.11;100.00;61570.13;5014674;28;19924;-57
2022/07/10 10:30:22;;;;;;;;;;;;;;;-147.11;100.00;61570.13;5019512;28;19917;-56
2022/07/10 10:32:48;;;;;;;;;;;;;;;-147.11;100.00;61570.13;5016322;28;20177;-61
2022/07/10 10:35:35;;;;;;;;;;;;;;;-147.11;100.00;61570.13;5020007;28;20452;-60
2022/07/10 10:38:00;;;;;;;;;;;;;;;-147.11;100.00;61570.13;5018104;28;19941;-57
2022/07/10 10:40:32;;;;;;;;;;;;;;;-147.11;100.00;61570.13;5018378;28;20308;-58
2022/07/10 10:43:20;;;;;;;;;;;;;;;-147.11;100.00;61570.13;5017861;28;19917;-58
2022/07/10 10:45:46;;;;;;;;;;;;;;;-147.11;100.00;61570.13;5027262;28;19931;-59
2022/07/10 10:48:15;;;;;;;;;;;;;;;-147.11;100.00;61570.13;5000421;28;20105;-59
2022/07/10 10:50:41;;;;;;;;;;;;;;;-147.11;100.00;61570.13;5016850;28;19917;-62
2022/07/10 10:53:14;;;;;;;;;;;;;;;-147.11;100.00;61570.13;5018495;28;20295;-59
2022/07/10 10:55:41;;;;;;;;;;;;;;;-147.11;100.00;61570.13;5023711;28;19996;-58
2022/07/10 10:58:17;;;;;;;;;;;;;;;-147.11;100.00;61570.13;5022016;28;19916;-58
2022/07/10 11:00:43;;;;;;;;;;;;;;;-147.11;100.00;61570.13;5019980;28;20384;-59
2022/07/10 11:03:11;;;;;;;;;;;;;;;-147.11;100.00;61570.13;5018317;28;20285;-63
2022/07/10 11:05:38;;;;;;;;;;;;;;;-147.11;100.00;61570.13;5019867;28;19933;-59
2022/07/10 11:08:04;;;;;;;;;;;;;;;-147.11;100.00;61570.13;5019065;28;19913;-56
2022/07/10 11:10:30;;;;;;;;;;;;;;;-147.11;100.00;61570.13;4998533;28;20357;-59
2022/07/10 11:13:07;;;;;;;;;;;;;;;-147.11;100.00;61570.13;5017600;28;19917;-60
2022/07/10 11:15:33;;;;;;;;;;;;;;;-147.11;100.00;61570.13;5019894;28;19917;-59
2022/07/10 11:18:08;;;;;;;;;;;;;;;-147.11;100.00;61570.13;5023029;28;20160;-59
2022/07/10 11:20:35;;;;;;;;;;;;;;;-147.11;100.00;61570.13;5024291;28;19921;-59
2022/07/10 11:23:06;;;;;;;;;;;;;;;-147.11;100.00;61570.13;5022013;28;20312;-61
2022/07/10 11:25:38;;;;;;;;;;;;;;;-147.11;100.00;61570.13;5020084;28;19968;-59
2022/07/10 11:28:08;;;;;;;;;;;;;;;-147.11;100.00;61570.13;5021643;28;19917;-58
2022/07/10 11:30:47;;;;;;;;;;;;;;;-147.11;100.00;61570.13;5020515;28;20036;-58
2022/07/10 11:33:13;;;;;;;;;;;;;;;-147.11;100.00;61570.13;5019760;28;20267;-58
2022/07/10 11:35:40;;;;;;;;;;;;;;;-147.11;100.00;61570.13;5021995;28;19932;-57
2022/07/10 11:38:06;;;;;;;;;;;;;;;-147.11;100.00;61570.13;5021842;28;20287;-57
2022/07/10 11:40:35;;;;;;;;;;;;;;;-147.11;100.00;61570.13;5013202;28;20351;-58
2022/07/10 11:43:04;;;;;;;;;;;;;;;-147.11;100.00;61570.13;5020504;28;20020;-57
2022/07/10 11:45:30;;;;;;;;;;;;;;;-147.11;100.00;61570.13;5018842;28;20335;-57
2022/07/10 11:47:56;;;;;;;;;;;;;;;-147.11;100.00;61570.13;5024145;28;19924;-58
2022/07/10 11:50:22;;;;;;;;;;;;;;;-147.11;100.00;61570.13;5021687;28;20339;-55
2022/07/10 11:52:47;;;;;;;;;;;;;;;-147.11;100.00;61570.13;5023434;28;19921;-56
2022/07/10 11:55:23;;;;;;;;;;;;;;;-147.11;100.00;61570.13;5022522;28;19956;-62
2022/07/10 11:57:48;;;;;;;;;;;;;;;-147.11;100.00;61570.13;5023394;28;19923;-58
2022/07/10 12:00:43;;;;;;;;;;;;;;;-147.11;100.00;61570.13;5023010;28;19920;-57
2022/07/10 12:03:20;;;;;;;;;;;;;;;-147.11;100.00;61570.13;5011993;28;20003;-57
2022/07/10 12:05:46;;;;;;;;;;;;;;;-147.11;100.00;61570.13;5018283;28;20384;-58
2022/07/10 12:08:13;;;;;;;;;;;;;;;-147.11;100.00;61570.13;5022147;28;19924;-60
2022/07/10 12:10:41;;;;;;;;;;;;;;;-147.11;100.00;61570.13;5017263;28;20423;-59
2022/07/10 12:13:13;;;;;;;;;;;;;;;-147.11;100.00;61570.13;5020558;28;19921;-57
2022/07/10 12:15:40;;;;;;;;;;;;;;;-147.11;100.00;61570.13;5020204;28;19909;-58
2022/07/10 12:18:09;;;;;;;;;;;;;;;-147.11;100.00;61570.13;5019320;28;20295;-58
2022/07/10 12:20:36;;;;;;;;;;;;;;;-147.11;100.00;61570.13;5020010;28;20363;-56
2022/07/10 12:23:02;;;;;;;;;;;;;;;-147.11;100.00;61570.13;5010951;28;20016;-56